sensor_id;sensor_type;location;lat;lon;timestamp;temperature;humidity
20141;DHT22;10231;47.702;9.826;2023-06-04T00:00:26;15.60;99.90
20141;DHT22;10231;47.702;9.826;2023-06-04T00:02:52;15.50;99.90
20141;DHT22;10231;47.702;9.826;2023-06-04T00:05:17;15.50;99.90
20141;DHT22;10231;47.702;9.826;2023-06-04T00:07:43;15.50;99.90
20141;DHT22;10231;47.702;9.826;2023-06-04T00:10:09;15.50;99.90
20141;DHT22;10231;47.702;9.826;2023-06-04T00:12:38;15.50;99.90
20141;DHT22;10231;47.702;9.826;2023-06-04T00:15:03;15.50;99.90
20141;DHT22;10231;47.702;9.826;2023-06-04T00:17:29;15.50;99.90
20141;DHT22;10231;47.702;9.826;2023-06-04T00:19:54;15.50;99.90
20141;DHT22;10231;47.702;9.826;2023-06-04T00:22:20;15.40;99.90
20141;DHT22;10231;47.702;9.826;2023-06-04T00:24:46;15.40;99.90
20141;DHT22;10231;47.702;9.826;2023-06-04T00:27:11;15.30;99.90
20141;DHT22;10231;47.702;9.826;2023-06-04T00:29:37;15.20;99.90
20141;DHT22;10231;47.702;9.826;2023-06-04T00:32:03;15.20;99.90
20141;DHT22;10231;47.702;9.826;2023-06-04T00:34:28;15.20;99.90
20141;DHT22;10231;47.702;9.826;2023-06-04T00:36:54;15.20;99.90
20141;DHT22;10231;47.702;9.826;2023-06-04T00:39:21;15.10;99.90
20141;DHT22;10231;47.702;9.826;2023-06-04T00:41:46;15.00;99.90
20141;DHT22;10231;47.702;9.826;2023-06-04T00:44:12;15.00;99.90
20141;DHT22;10231;47.702;9.826;2023-06-04T00:46:38;14.80;99.90
20141;DHT22;10231;47.702;9.826;2023-06-04T00:49:05;14.90;99.90
20141;DHT22;10231;47.702;9.826;2023-06-04T00:51:32;14.80;99.90
20141;DHT22;10231;47.702;9.826;2023-06-04T00:53:58;14.90;99.90
20141;DHT22;10231;47.702;9.826;2023-06-04T00:56:24;14.90;99.90
20141;DHT22;10231;47.702;9.826;2023-06-04T00:58:49;14.80;99.90
20141;DHT22;10231;47.702;9.826;2023-06-04T01:01:39;14.80;99.90
20141;DHT22;10231;47.702;9.826;2023-06-04T01:04:16;14.80;99.90
20141;DHT22;10231;47.702;9.826;2023-06-04T01:06:45;14.70;99.90
20141;DHT22;10231;47.702;9.826;2023-06-04T01:09:13;14.70;99.90
20141;DHT22;10231;47.702;9.826;2023-06-04T01:11:40;14.60;99.90
20141;DHT22;10231;47.702;9.826;2023-06-04T01:14:07;14.60;99.90
20141;DHT22;10231;47.702;9.826;2023-06-04T01:16:50;14.50;99.90
20141;DHT22;10231;47.702;9.826;2023-06-04T01:25:05;14.60;99.90
20141;DHT22;10231;47.702;9.826;2023-06-04T01:27:35;14.60;99.90
20141;DHT22;10231;47.702;9.826;2023-06-04T01:30:01;14.50;99.90
20141;DHT22;10231;47.702;9.826;2023-06-04T01:32:28;14.50;99.90
20141;DHT22;10231;47.702;9.826;2023-06-04T01:34:55;14.40;99.90
20141;DHT22;10231;47.702;9.826;2023-06-04T01:37:21;14.30;99.90
20141;DHT22;10231;47.702;9.826;2023-06-04T01:39:47;14.30;99.90
20141;DHT22;10231;47.702;9.826;2023-06-04T01:42:12;14.20;99.90
20141;DHT22;10231;47.702;9.826;2023-06-04T01:44:38;14.30;99.90
20141;DHT22;10231;47.702;9.826;2023-06-04T01:47:03;14.20;99.90
20141;DHT22;10231;47.702;9.826;2023-06-04T01:49:29;14.20;99.90
20141;DHT22;10231;47.702;9.826;2023-06-04T01:51:55;14.20;99.90
20141;DHT22;10231;47.702;9.826;2023-06-04T01:54:21;14.10;99.90
20141;DHT22;10231;47.702;9.826;2023-06-04T01:56:47;14.20;99.90
20141;DHT22;10231;47.702;9.826;2023-06-04T01:59:14;14.10;99.90
20141;DHT22;10231;47.702;9.826;2023-06-04T02:01:41;14.10;99.90
20141;DHT22;10231;47.702;9.826;2023-06-04T02:04:07;14.10;99.90
20141;DHT22;10231;47.702;9.826;2023-06-04T02:06:32;14.10;99.90
20141;DHT22;10231;47.702;9.826;2023-06-04T02:08:59;14.10;99.90
20141;DHT22;10231;47.702;9.826;2023-06-04T02:11:25;14.10;99.90
20141;DHT22;10231;47.702;9.826;2023-06-04T02:13:51;14.00;99.90
20141;DHT22;10231;47.702;9.826;2023-06-04T02:16:16;13.90;99.90
20141;DHT22;10231;47.702;9.826;2023-06-04T02:18:42;14.00;99.90
20141;DHT22;10231;47.702;9.826;2023-06-04T02:21:08;14.00;99.90
20141;DHT22;10231;47.702;9.826;2023-06-04T02:23:33;13.90;99.90
20141;DHT22;10231;47.702;9.826;2023-06-04T02:25:59;13.90;99.90
20141;DHT22;10231;47.702;9.826;2023-06-04T02:28:25;13.80;99.90
20141;DHT22;10231;47.702;9.826;2023-06-04T02:30:51;13.70;99.90
20141;DHT22;10231;47.702;9.826;2023-06-04T02:33:17;13.70;99.90
20141;DHT22;10231;47.702;9.826;2023-06-04T02:35:42;13.70;99.90
20141;DHT22;10231;47.702;9.826;2023-06-04T02:38:08;13.70;99.90
20141;DHT22;10231;47.702;9.826;2023-06-04T02:40:34;13.70;99.90
20141;DHT22;10231;47.702;9.826;2023-06-04T02:42:59;13.60;99.90
20141;DHT22;10231;47.702;9.826;2023-06-04T02:45:25;13.60;99.90
20141;DHT22;10231;47.702;9.826;2023-06-04T02:47:51;13.60;99.90
20141;DHT22;10231;47.702;9.826;2023-06-04T02:50:16;13.60;99.90
20141;DHT22;10231;47.702;9.826;2023-06-04T02:52:42;13.60;99.90
20141;DHT22;10231;47.702;9.826;2023-06-04T02:55:08;13.60;99.90
20141;DHT22;10231;47.702;9.826;2023-06-04T02:57:35;13.50;99.90
20141;DHT22;10231;47.702;9.826;2023-06-04T03:00:01;13.50;99.90
20141;DHT22;10231;47.702;9.826;2023-06-04T03:02:35;13.50;99.90
20141;DHT22;10231;47.702;9.826;2023-06-04T03:05:01;13.50;99.90
20141;DHT22;10231;47.702;9.826;2023-06-04T03:07:27;13.50;99.90
20141;DHT22;10231;47.702;9.826;2023-06-04T03:09:53;13.60;99.90
20141;DHT22;10231;47.702;9.826;2023-06-04T03:12:18;13.50;99.90
20141;DHT22;10231;47.702;9.826;2023-06-04T03:14:44;13.60;99.90
20141;DHT22;10231;47.702;9.826;2023-06-04T03:17:09;13.50;99.90
20141;DHT22;10231;47.702;9.826;2023-06-04T03:19:39;13.40;99.90
20141;DHT22;10231;47.702;9.826;2023-06-04T03:22:06;13.50;99.90
20141;DHT22;10231;47.702;9.826;2023-06-04T03:24:39;13.40;99.90
20141;DHT22;10231;47.702;9.826;2023-06-04T03:27:05;13.40;99.90
20141;DHT22;10231;47.702;9.826;2023-06-04T03:29:32;13.40;99.90
20141;DHT22;10231;47.702;9.826;2023-06-04T03:31:59;13.40;99.90
20141;DHT22;10231;47.702;9.826;2023-06-04T03:34:24;13.40;99.90
20141;DHT22;10231;47.702;9.826;2023-06-04T03:36:51;13.40;99.90
20141;DHT22;10231;47.702;9.826;2023-06-04T03:39:17;13.40;99.90
20141;DHT22;10231;47.702;9.826;2023-06-04T03:41:43;13.40;99.90
20141;DHT22;10231;47.702;9.826;2023-06-04T03:44:09;13.40;99.90
20141;DHT22;10231;47.702;9.826;2023-06-04T03:46:34;13.40;99.90
20141;DHT22;10231;47.702;9.826;2023-06-04T03:49:01;13.40;99.90
20141;DHT22;10231;47.702;9.826;2023-06-04T03:51:27;13.40;99.90
20141;DHT22;10231;47.702;9.826;2023-06-04T03:53:52;13.50;99.90
20141;DHT22;10231;47.702;9.826;2023-06-04T03:56:18;13.40;99.90
20141;DHT22;10231;47.702;9.826;2023-06-04T03:58:44;13.50;99.90
20141;DHT22;10231;47.702;9.826;2023-06-04T04:01:10;13.50;99.90
20141;DHT22;10231;47.702;9.826;2023-06-04T04:03:36;13.50;99.90
20141;DHT22;10231;47.702;9.826;2023-06-04T04:06:01;13.60;99.90
20141;DHT22;10231;47.702;9.826;2023-06-04T04:08:27;13.60;99.90
20141;DHT22;10231;47.702;9.826;2023-06-04T04:10:57;13.70;99.90
20141;DHT22;10231;47.702;9.826;2023-06-04T04:13:23;13.70;99.90
20141;DHT22;10231;47.702;9.826;2023-06-04T04:15:48;13.70;99.90
20141;DHT22;10231;47.702;9.826;2023-06-04T04:18:18;13.80;99.90
20141;DHT22;10231;47.702;9.826;2023-06-04T04:20:45;13.90;99.90
20141;DHT22;10231;47.702;9.826;2023-06-04T04:23:11;13.90;99.90
20141;DHT22;10231;47.702;9.826;2023-06-04T04:25:37;13.90;99.90
20141;DHT22;10231;47.702;9.826;2023-06-04T04:28:04;13.90;99.90
20141;DHT22;10231;47.702;9.826;2023-06-04T04:30:35;14.00;99.90
20141;DHT22;10231;47.702;9.826;2023-06-04T04:33:01;14.10;99.90
20141;DHT22;10231;47.702;9.826;2023-06-04T04:35:27;14.10;99.90
20141;DHT22;10231;47.702;9.826;2023-06-04T04:37:54;14.10;99.90
20141;DHT22;10231;47.702;9.826;2023-06-04T04:40:20;14.10;99.90
20141;DHT22;10231;47.702;9.826;2023-06-04T04:42:46;14.10;99.90
20141;DHT22;10231;47.702;9.826;2023-06-04T04:45:12;14.10;99.90
20141;DHT22;10231;47.702;9.826;2023-06-04T04:47:38;14.10;99.90
20141;DHT22;10231;47.702;9.826;2023-06-04T04:50:04;14.10;99.90
20141;DHT22;10231;47.702;9.826;2023-06-04T04:52:30;14.10;99.90
20141;DHT22;10231;47.702;9.826;2023-06-04T04:54:55;14.10;99.90
20141;DHT22;10231;47.702;9.826;2023-06-04T04:57:23;14.20;99.90
20141;DHT22;10231;47.702;9.826;2023-06-04T04:59:49;14.30;99.90
20141;DHT22;10231;47.702;9.826;2023-06-04T05:02:15;14.20;99.90
20141;DHT22;10231;47.702;9.826;2023-06-04T05:04:41;14.20;99.90
20141;DHT22;10231;47.702;9.826;2023-06-04T05:07:06;14.30;99.90
20141;DHT22;10231;47.702;9.826;2023-06-04T05:09:32;14.40;99.90
20141;DHT22;10231;47.702;9.826;2023-06-04T05:11:57;14.50;99.90
20141;DHT22;10231;47.702;9.826;2023-06-04T05:14:23;14.40;99.90
20141;DHT22;10231;47.702;9.826;2023-06-04T05:16:49;14.40;99.90
20141;DHT22;10231;47.702;9.826;2023-06-04T05:19:16;14.50;99.90
20141;DHT22;10231;47.702;9.826;2023-06-04T05:21:42;14.50;99.90
20141;DHT22;10231;47.702;9.826;2023-06-04T05:24:09;14.60;99.90
20141;DHT22;10231;47.702;9.826;2023-06-04T05:26:36;14.60;99.90
20141;DHT22;10231;47.702;9.826;2023-06-04T05:29:02;14.60;99.90
20141;DHT22;10231;47.702;9.826;2023-06-04T05:31:29;14.70;99.90
20141;DHT22;10231;47.702;9.826;2023-06-04T05:33:59;14.70;99.90
20141;DHT22;10231;47.702;9.826;2023-06-04T05:36:30;14.80;99.90
20141;DHT22;10231;47.702;9.826;2023-06-04T05:38:56;14.80;99.90
20141;DHT22;10231;47.702;9.826;2023-06-04T05:41:25;14.90;99.90
20141;DHT22;10231;47.702;9.826;2023-06-04T05:43:51;14.90;99.90
20141;DHT22;10231;47.702;9.826;2023-06-04T05:46:17;15.00;99.90
20141;DHT22;10231;47.702;9.826;2023-06-04T05:48:43;15.00;99.90
20141;DHT22;10231;47.702;9.826;2023-06-04T05:51:08;15.00;99.90
20141;DHT22;10231;47.702;9.826;2023-06-04T05:53:34;15.10;99.90
20141;DHT22;10231;47.702;9.826;2023-06-04T05:56:00;15.10;99.90
20141;DHT22;10231;47.702;9.826;2023-06-04T05:58:25;15.10;99.90
20141;DHT22;10231;47.702;9.826;2023-06-04T06:00:51;15.10;99.90
20141;DHT22;10231;47.702;9.826;2023-06-04T06:03:17;15.20;99.90
20141;DHT22;10231;47.702;9.826;2023-06-04T06:05:43;15.20;99.90
20141;DHT22;10231;47.702;9.826;2023-06-04T06:08:08;15.30;99.90
20141;DHT22;10231;47.702;9.826;2023-06-04T06:10:34;15.40;99.90
20141;DHT22;10231;47.702;9.826;2023-06-04T06:13:00;15.60;99.90
20141;DHT22;10231;47.702;9.826;2023-06-04T06:15:28;15.60;99.90
20141;DHT22;10231;47.702;9.826;2023-06-04T06:17:54;15.70;99.90
20141;DHT22;10231;47.702;9.826;2023-06-04T06:20:20;15.80;99.90
20141;DHT22;10231;47.702;9.826;2023-06-04T06:22:47;15.90;99.90
20141;DHT22;10231;47.702;9.826;2023-06-04T06:25:13;15.90;99.90
20141;DHT22;10231;47.702;9.826;2023-06-04T06:27:42;16.00;99.90
20141;DHT22;10231;47.702;9.826;2023-06-04T06:30:08;16.10;99.90
20141;DHT22;10231;47.702;9.826;2023-06-04T06:32:34;16.10;99.90
20141;DHT22;10231;47.702;9.826;2023-06-04T06:35:00;16.20;99.90
20141;DHT22;10231;47.702;9.826;2023-06-04T06:37:26;16.30;99.90
20141;DHT22;10231;47.702;9.826;2023-06-04T06:39:51;16.40;99.90
20141;DHT22;10231;47.702;9.826;2023-06-04T06:42:17;16.40;99.90
20141;DHT22;10231;47.702;9.826;2023-06-04T06:44:47;16.50;99.90
20141;DHT22;10231;47.702;9.826;2023-06-04T06:47:12;16.60;99.90
20141;DHT22;10231;47.702;9.826;2023-06-04T06:49:40;16.60;99.90
20141;DHT22;10231;47.702;9.826;2023-06-04T06:52:05;16.60;99.90
20141;DHT22;10231;47.702;9.826;2023-06-04T06:54:31;16.80;99.90
20141;DHT22;10231;47.702;9.826;2023-06-04T06:56:57;16.80;99.90
20141;DHT22;10231;47.702;9.826;2023-06-04T06:59:23;16.90;99.90
20141;DHT22;10231;47.702;9.826;2023-06-04T07:01:49;16.90;99.90
20141;DHT22;10231;47.702;9.826;2023-06-04T07:04:15;17.00;99.90
20141;DHT22;10231;47.702;9.826;2023-06-04T07:06:41;17.00;99.90
20141;DHT22;10231;47.702;9.826;2023-06-04T07:09:07;17.10;99.90
20141;DHT22;10231;47.702;9.826;2023-06-04T07:11:32;17.20;99.90
20141;DHT22;10231;47.702;9.826;2023-06-04T07:13:58;17.20;99.90
20141;DHT22;10231;47.702;9.826;2023-06-04T07:16:24;17.30;99.90
20141;DHT22;10231;47.702;9.826;2023-06-04T07:18:49;17.40;99.90
20141;DHT22;10231;47.702;9.826;2023-06-04T07:21:15;17.50;99.90
20141;DHT22;10231;47.702;9.826;2023-06-04T07:23:41;17.50;99.90
20141;DHT22;10231;47.702;9.826;2023-06-04T07:26:07;17.60;99.90
20141;DHT22;10231;47.702;9.826;2023-06-04T07:28:32;17.70;99.90
20141;DHT22;10231;47.702;9.826;2023-06-04T07:30:58;17.70;99.90
20141;DHT22;10231;47.702;9.826;2023-06-04T07:33:24;17.80;99.90
20141;DHT22;10231;47.702;9.826;2023-06-04T07:35:50;17.90;99.90
20141;DHT22;10231;47.702;9.826;2023-06-04T07:38:15;17.90;99.90
20141;DHT22;10231;47.702;9.826;2023-06-04T07:40:41;18.10;99.90
20141;DHT22;10231;47.702;9.826;2023-06-04T07:43:07;18.10;99.90
20141;DHT22;10231;47.702;9.826;2023-06-04T07:45:33;18.20;99.90
20141;DHT22;10231;47.702;9.826;2023-06-04T07:47:58;18.30;99.90
20141;DHT22;10231;47.702;9.826;2023-06-04T07:50:24;18.40;99.90
20141;DHT22;10231;47.702;9.826;2023-06-04T07:52:50;18.50;99.90
20141;DHT22;10231;47.702;9.826;2023-06-04T07:55:16;18.60;99.90
20141;DHT22;10231;47.702;9.826;2023-06-04T07:57:42;18.60;99.80
20141;DHT22;10231;47.702;9.826;2023-06-04T08:00:08;18.60;98.70
20141;DHT22;10231;47.702;9.826;2023-06-04T08:02:34;18.60;97.90
20141;DHT22;10231;47.702;9.826;2023-06-04T08:05:00;18.70;96.80
20141;DHT22;10231;47.702;9.826;2023-06-04T08:07:27;18.70;97.00
20141;DHT22;10231;47.702;9.826;2023-06-04T08:09:53;18.70;96.40
20141;DHT22;10231;47.702;9.826;2023-06-04T08:12:21;18.80;95.90
20141;DHT22;10231;47.702;9.826;2023-06-04T08:14:46;18.80;95.70
20141;DHT22;10231;47.702;9.826;2023-06-04T08:17:12;18.80;95.90
20141;DHT22;10231;47.702;9.826;2023-06-04T08:19:37;18.90;95.10
20141;DHT22;10231;47.702;9.826;2023-06-04T08:22:03;18.90;94.40
20141;DHT22;10231;47.702;9.826;2023-06-04T08:24:29;18.90;94.20
20141;DHT22;10231;47.702;9.826;2023-06-04T08:26:55;19.00;94.50
20141;DHT22;10231;47.702;9.826;2023-06-04T08:29:21;19.00;94.60
20141;DHT22;10231;47.702;9.826;2023-06-04T08:31:46;19.10;94.40
20141;DHT22;10231;47.702;9.826;2023-06-04T08:34:12;19.10;94.70
20141;DHT22;10231;47.702;9.826;2023-06-04T08:36:37;19.20;94.20
20141;DHT22;10231;47.702;9.826;2023-06-04T08:39:03;19.20;94.00
20141;DHT22;10231;47.702;9.826;2023-06-04T08:41:33;19.20;94.00
20141;DHT22;10231;47.702;9.826;2023-06-04T08:44:01;19.20;94.30
20141;DHT22;10231;47.702;9.826;2023-06-04T08:46:28;19.30;93.40
20141;DHT22;10231;47.702;9.826;2023-06-04T08:49:00;19.30;93.00
20141;DHT22;10231;47.702;9.826;2023-06-04T08:51:32;19.30;93.70
20141;DHT22;10231;47.702;9.826;2023-06-04T08:53:59;19.30;93.50
20141;DHT22;10231;47.702;9.826;2023-06-04T08:56:25;19.30;93.90
20141;DHT22;10231;47.702;9.826;2023-06-04T08:58:51;19.50;92.90
20141;DHT22;10231;47.702;9.826;2023-06-04T09:01:18;19.50;92.40
20141;DHT22;10231;47.702;9.826;2023-06-04T09:03:44;19.40;92.70
20141;DHT22;10231;47.702;9.826;2023-06-04T09:06:11;19.60;92.80
20141;DHT22;10231;47.702;9.826;2023-06-04T09:08:38;19.50;92.70
20141;DHT22;10231;47.702;9.826;2023-06-04T09:11:08;19.60;92.60
20141;DHT22;10231;47.702;9.826;2023-06-04T09:13:36;19.70;92.90
20141;DHT22;10231;47.702;9.826;2023-06-04T09:16:02;19.70;92.90
20141;DHT22;10231;47.702;9.826;2023-06-04T09:18:29;19.90;94.10
20141;DHT22;10231;47.702;9.826;2023-06-04T09:21:05;19.90;92.10
20141;DHT22;10231;47.702;9.826;2023-06-04T09:23:49;19.80;91.70
20141;DHT22;10231;47.702;9.826;2023-06-04T09:26:15;19.90;91.40
20141;DHT22;10231;47.702;9.826;2023-06-04T09:28:41;19.90;91.30
20141;DHT22;10231;47.702;9.826;2023-06-04T09:31:14;19.90;91.60
20141;DHT22;10231;47.702;9.826;2023-06-04T09:36:09;20.00;92.30
20141;DHT22;10231;47.702;9.826;2023-06-04T09:38:35;20.10;91.40
20141;DHT22;10231;47.702;9.826;2023-06-04T09:41:01;20.10;91.90
20141;DHT22;10231;47.702;9.826;2023-06-04T09:43:30;20.00;91.10
20141;DHT22;10231;47.702;9.826;2023-06-04T09:46:11;20.00;90.30
20141;DHT22;10231;47.702;9.826;2023-06-04T09:48:37;20.00;90.60
20141;DHT22;10231;47.702;9.826;2023-06-04T09:51:14;20.10;90.70
20141;DHT22;10231;47.702;9.826;2023-06-04T09:53:57;20.00;91.40
20141;DHT22;10231;47.702;9.826;2023-06-04T09:56:23;20.10;91.20
20141;DHT22;10231;47.702;9.826;2023-06-04T09:58:49;20.10;91.40
20141;DHT22;10231;47.702;9.826;2023-06-04T10:01:15;20.10;90.90
20141;DHT22;10231;47.702;9.826;2023-06-04T10:03:47;20.10;89.50
20141;DHT22;10231;47.702;9.826;2023-06-04T10:06:15;20.20;89.40
20141;DHT22;10231;47.702;9.826;2023-06-04T10:08:42;20.20;89.00
20141;DHT22;10231;47.702;9.826;2023-06-04T10:11:09;20.20;88.80
20141;DHT22;10231;47.702;9.826;2023-06-04T10:13:53;20.20;89.90
20141;DHT22;10231;47.702;9.826;2023-06-04T10:16:19;20.20;90.60
20141;DHT22;10231;47.702;9.826;2023-06-04T10:18:46;20.30;90.10
20141;DHT22;10231;47.702;9.826;2023-06-04T10:21:13;20.40;89.10
20141;DHT22;10231;47.702;9.826;2023-06-04T10:23:40;20.40;88.30
20141;DHT22;10231;47.702;9.826;2023-06-04T10:26:13;20.40;90.10
20141;DHT22;10231;47.702;9.826;2023-06-04T10:28:41;20.40;90.20
20141;DHT22;10231;47.702;9.826;2023-06-04T10:31:08;20.50;90.80
20141;DHT22;10231;47.702;9.826;2023-06-04T10:33:34;20.50;90.30
20141;DHT22;10231;47.702;9.826;2023-06-04T10:36:18;20.50;88.70
20141;DHT22;10231;47.702;9.826;2023-06-04T10:38:48;20.50;87.70
20141;DHT22;10231;47.702;9.826;2023-06-04T10:41:15;20.60;88.00
20141;DHT22;10231;47.702;9.826;2023-06-04T10:43:45;20.60;89.70
20141;DHT22;10231;47.702;9.826;2023-06-04T10:46:14;20.60;89.30
20141;DHT22;10231;47.702;9.826;2023-06-04T10:48:53;20.80;90.00
20141;DHT22;10231;47.702;9.826;2023-06-04T10:51:34;20.80;86.40
20141;DHT22;10231;47.702;9.826;2023-06-04T10:54:02;20.90;87.60
20141;DHT22;10231;47.702;9.826;2023-06-04T10:56:33;20.90;89.10
20141;DHT22;10231;47.702;9.826;2023-06-04T10:59:00;21.10;90.20
20141;DHT22;10231;47.702;9.826;2023-06-04T11:01:29;21.20;88.80
20141;DHT22;10231;47.702;9.826;2023-06-04T11:03:57;21.20;87.60
20141;DHT22;10231;47.702;9.826;2023-06-04T11:06:23;21.20;87.60
20141;DHT22;10231;47.702;9.826;2023-06-04T11:09:04;21.30;88.30
20141;DHT22;10231;47.702;9.826;2023-06-04T11:11:31;21.30;87.30
20141;DHT22;10231;47.702;9.826;2023-06-04T11:14:10;21.30;86.90
20141;DHT22;10231;47.702;9.826;2023-06-04T11:16:38;21.40;90.90
20141;DHT22;10231;47.702;9.826;2023-06-04T11:19:04;21.40;89.90
20141;DHT22;10231;47.702;9.826;2023-06-04T11:21:30;21.50;87.70
20141;DHT22;10231;47.702;9.826;2023-06-04T11:23:58;21.60;84.80
20141;DHT22;10231;47.702;9.826;2023-06-04T11:26:34;21.50;87.40
20141;DHT22;10231;47.702;9.826;2023-06-04T11:29:01;21.50;86.10
20141;DHT22;10231;47.702;9.826;2023-06-04T11:31:27;21.50;81.80
20141;DHT22;10231;47.702;9.826;2023-06-04T11:33:52;21.60;82.40
20141;DHT22;10231;47.702;9.826;2023-06-04T11:36:25;21.60;82.20
20141;DHT22;10231;47.702;9.826;2023-06-04T11:39:02;21.60;84.70
20141;DHT22;10231;47.702;9.826;2023-06-04T11:41:33;21.70;86.20
20141;DHT22;10231;47.702;9.826;2023-06-04T11:44:05;21.80;87.30
20141;DHT22;10231;47.702;9.826;2023-06-04T11:46:32;21.90;88.50
20141;DHT22;10231;47.702;9.826;2023-06-04T11:48:59;22.00;90.30
20141;DHT22;10231;47.702;9.826;2023-06-04T11:51:24;22.10;91.60
20141;DHT22;10231;47.702;9.826;2023-06-04T11:53:50;22.20;90.30
20141;DHT22;10231;47.702;9.826;2023-06-04T11:56:16;22.20;88.90
20141;DHT22;10231;47.702;9.826;2023-06-04T11:58:42;22.20;87.40
20141;DHT22;10231;47.702;9.826;2023-06-04T12:01:08;22.20;86.40
20141;DHT22;10231;47.702;9.826;2023-06-04T12:03:39;22.20;82.50
20141;DHT22;10231;47.702;9.826;2023-06-04T12:06:16;22.20;82.90
20141;DHT22;10231;47.702;9.826;2023-06-04T12:08:52;22.20;82.70
20141;DHT22;10231;47.702;9.826;2023-06-04T12:11:29;22.10;84.60
20141;DHT22;10231;47.702;9.826;2023-06-04T12:13:57;22.10;84.40
20141;DHT22;10231;47.702;9.826;2023-06-04T12:16:23;22.10;87.30
20141;DHT22;10231;47.702;9.826;2023-06-04T12:18:49;22.20;85.10
20141;DHT22;10231;47.702;9.826;2023-06-04T12:21:23;22.30;84.40
20141;DHT22;10231;47.702;9.826;2023-06-04T12:24:12;22.30;83.10
20141;DHT22;10231;47.702;9.826;2023-06-04T12:26:39;22.30;85.40
20141;DHT22;10231;47.702;9.826;2023-06-04T12:29:13;22.30;84.50
20141;DHT22;10231;47.702;9.826;2023-06-04T12:31:41;22.20;82.50
20141;DHT22;10231;47.702;9.826;2023-06-04T12:34:08;22.20;84.00
20141;DHT22;10231;47.702;9.826;2023-06-04T12:36:34;22.30;85.30
20141;DHT22;10231;47.702;9.826;2023-06-04T12:39:01;22.30;84.20
20141;DHT22;10231;47.702;9.826;2023-06-04T12:41:30;22.30;88.10
20141;DHT22;10231;47.702;9.826;2023-06-04T12:43:56;22.30;85.20
20141;DHT22;10231;47.702;9.826;2023-06-04T12:46:22;22.20;85.40
20141;DHT22;10231;47.702;9.826;2023-06-04T12:48:52;22.20;88.80
20141;DHT22;10231;47.702;9.826;2023-06-04T12:51:18;22.20;87.60
20141;DHT22;10231;47.702;9.826;2023-06-04T12:53:45;22.20;86.80
20141;DHT22;10231;47.702;9.826;2023-06-04T12:56:10;22.20;86.40
20141;DHT22;10231;47.702;9.826;2023-06-04T12:58:36;22.20;85.20
20141;DHT22;10231;47.702;9.826;2023-06-04T13:01:02;22.20;85.80
20141;DHT22;10231;47.702;9.826;2023-06-04T13:03:30;22.20;84.60
20141;DHT22;10231;47.702;9.826;2023-06-04T13:05:55;22.20;85.20
20141;DHT22;10231;47.702;9.826;2023-06-04T13:08:21;22.20;84.80
20141;DHT22;10231;47.702;9.826;2023-06-04T13:10:47;22.20;85.50
20141;DHT22;10231;47.702;9.826;2023-06-04T13:13:14;22.30;85.90
20141;DHT22;10231;47.702;9.826;2023-06-04T13:15:41;22.30;83.70
20141;DHT22;10231;47.702;9.826;2023-06-04T13:18:07;22.40;85.50
20141;DHT22;10231;47.702;9.826;2023-06-04T13:20:32;22.50;83.80
20141;DHT22;10231;47.702;9.826;2023-06-04T13:22:58;22.60;84.90
20141;DHT22;10231;47.702;9.826;2023-06-04T13:25:23;22.80;87.50
20141;DHT22;10231;47.702;9.826;2023-06-04T13:27:49;22.90;88.60
20141;DHT22;10231;47.702;9.826;2023-06-04T13:30:14;23.10;85.80
20141;DHT22;10231;47.702;9.826;2023-06-04T13:32:40;23.20;84.50
20141;DHT22;10231;47.702;9.826;2023-06-04T13:35:06;23.40;84.40
20141;DHT22;10231;47.702;9.826;2023-06-04T13:37:32;23.50;85.80
20141;DHT22;10231;47.702;9.826;2023-06-04T13:39:57;23.80;84.70
20141;DHT22;10231;47.702;9.826;2023-06-04T13:42:23;23.80;82.90
20141;DHT22;10231;47.702;9.826;2023-06-04T13:44:48;23.80;81.90
20141;DHT22;10231;47.702;9.826;2023-06-04T13:47:14;23.90;81.90
20141;DHT22;10231;47.702;9.826;2023-06-04T13:49:39;23.90;83.00
20141;DHT22;10231;47.702;9.826;2023-06-04T13:52:05;24.10;83.60
20141;DHT22;10231;47.702;9.826;2023-06-04T13:54:31;24.30;79.90
20141;DHT22;10231;47.702;9.826;2023-06-04T13:56:57;24.50;79.90
20141;DHT22;10231;47.702;9.826;2023-06-04T13:59:22;24.70;82.40
20141;DHT22;10231;47.702;9.826;2023-06-04T14:01:48;24.80;80.10
20141;DHT22;10231;47.702;9.826;2023-06-04T14:04:13;25.00;79.70
20141;DHT22;10231;47.702;9.826;2023-06-04T14:06:39;25.10;78.80
20141;DHT22;10231;47.702;9.826;2023-06-04T14:09:04;25.20;76.10
20141;DHT22;10231;47.702;9.826;2023-06-04T14:11:34;25.20;77.60
20141;DHT22;10231;47.702;9.826;2023-06-04T14:14:00;25.40;76.40
20141;DHT22;10231;47.702;9.826;2023-06-04T14:16:25;25.40;76.90
20141;DHT22;10231;47.702;9.826;2023-06-04T14:18:51;25.50;74.70
20141;DHT22;10231;47.702;9.826;2023-06-04T14:21:16;25.50;75.60
20141;DHT22;10231;47.702;9.826;2023-06-04T14:23:42;25.50;74.90
20141;DHT22;10231;47.702;9.826;2023-06-04T14:26:08;25.50;75.60
20141;DHT22;10231;47.702;9.826;2023-06-04T14:28:33;25.40;76.10
20141;DHT22;10231;47.702;9.826;2023-06-04T14:31:00;25.40;74.30
20141;DHT22;10231;47.702;9.826;2023-06-04T14:33:25;25.50;75.00
20141;DHT22;10231;47.702;9.826;2023-06-04T14:35:51;25.50;76.30
20141;DHT22;10231;47.702;9.826;2023-06-04T14:38:17;25.60;74.70
20141;DHT22;10231;47.702;9.826;2023-06-04T14:40:42;25.60;73.90
20141;DHT22;10231;47.702;9.826;2023-06-04T14:43:10;25.70;75.70
20141;DHT22;10231;47.702;9.826;2023-06-04T14:45:36;25.60;74.50
20141;DHT22;10231;47.702;9.826;2023-06-04T14:48:04;25.50;69.40
20141;DHT22;10231;47.702;9.826;2023-06-04T14:50:30;25.20;71.20
20141;DHT22;10231;47.702;9.826;2023-06-04T14:52:55;25.10;73.00
20141;DHT22;10231;47.702;9.826;2023-06-04T14:55:21;25.00;72.70
20141;DHT22;10231;47.702;9.826;2023-06-04T14:57:48;24.90;72.70
20141;DHT22;10231;47.702;9.826;2023-06-04T15:00:14;24.80;73.10
20141;DHT22;10231;47.702;9.826;2023-06-04T15:02:40;24.80;73.00
20141;DHT22;10231;47.702;9.826;2023-06-04T15:05:05;24.90;74.40
20141;DHT22;10231;47.702;9.826;2023-06-04T15:07:31;25.10;72.70
20141;DHT22;10231;47.702;9.826;2023-06-04T15:09:57;25.30;73.50
20141;DHT22;10231;47.702;9.826;2023-06-04T15:12:23;25.60;72.90
20141;DHT22;10231;47.702;9.826;2023-06-04T15:14:48;25.80;74.30
20141;DHT22;10231;47.702;9.826;2023-06-04T15:17:14;25.90;72.00
20141;DHT22;10231;47.702;9.826;2023-06-04T15:19:39;25.90;73.90
20141;DHT22;10231;47.702;9.826;2023-06-04T15:22:05;26.20;73.60
20141;DHT22;10231;47.702;9.826;2023-06-04T15:24:31;26.50;70.80
20141;DHT22;10231;47.702;9.826;2023-06-04T15:26:57;26.60;70.50
20141;DHT22;10231;47.702;9.826;2023-06-04T15:29:22;26.60;70.60
20141;DHT22;10231;47.702;9.826;2023-06-04T15:31:48;26.50;70.20
20141;DHT22;10231;47.702;9.826;2023-06-04T15:34:13;26.40;71.70
20141;DHT22;10231;47.702;9.826;2023-06-04T15:36:39;26.50;72.90